Nearby METAR Reports

 

KBFI - Seattle/Boeing, Washington, USA
Distance from station: S 10mi, 16km
Updated: Jun/15/2021 5:53pm
Mostly cloudy
Mostly cloudy
 Wind from SSW
Wind: SSW 12 mph , 19 km/h, Gust: 20 mph , 31 km/h
Temperature: 66°F , 19°C
Dew Point: 54°F , 12°C
Humidity: 64%
Barometer: 30.25 inHg , 1024.4 hPa
Clouds: Mostly cloudy
Visibility: 10 miles , 16 km
Cloud details: Partly cloudy 6000 ft
Mostly cloudy 15000 ft
2021/06/16 00:53 KBFI 160053Z 20010G17KT 10SM SCT060 BKN150 19/12 A3025 RMK AO2 SLP243 T01890117
KRNT - Renton, Washington, USA
Distance from station: SSE 14mi, 23km
Updated: Jun/15/2021 5:53pm
Mostly cloudy
Mostly cloudy
 Wind from varies
Wind: varies 7 mph , 11 km/h
Temperature: 66°F , 19°C
Dew Point: 52°F , 11°C
Humidity: 60%
Barometer: 30.25 inHg , 1024.4 hPa
Clouds: Mostly cloudy
Visibility: 10 miles , 16 km
Cloud details: Mostly cloudy 9000 ft
2021/06/16 00:53 KRNT 160053Z VRB06KT 10SM BKN090 19/11 A3025 RMK AO2 SLP249 T01940106
 
KPAE - Everett, Washington, USA
Distance from station: N 15mi, 25km
Updated: Jun/15/2021 5:53pm
Overcast
Overcast
 Wind from SSW
Wind: SSW 10 mph , 17 km/h
Temperature: 63°F , 17°C
Dew Point: 48°F , 9°C
Humidity: 59%
Barometer: 30.25 inHg , 1024.4 hPa
Clouds: Overcast
Visibility: 10 miles , 16 km
Cloud details: Overcast 9000 ft
2021/06/16 00:53 KPAE 160053Z 21009KT 10SM OVC090 17/09 A3025 RMK AO2 SLP241 T01720094
KSEA - Seattle/Metro, Washington, USA
Distance from station: S 17mi, 27km
Updated: Jun/15/2021 5:53pm
Partly cloudy
Partly cloudy
 Wind from SSW
Wind: SSW 12 mph , 19 km/h
Temperature: 64°F , 18°C
Dew Point: 52°F , 11°C
Humidity: 64%
Barometer: 30.26 inHg , 1024.7 hPa
Clouds: Partly cloudy
Visibility: 10 miles , 16 km
Cloud details: Few Clouds 3500 ft
Few Clouds 6000 ft
Partly cloudy 9000 ft
Partly cloudy 20000 ft
2021/06/16 00:53 KSEA 160053Z 20010KT 10SM FEW035 FEW060 SCT090 SCT200 18/11 A3026 RMK AO2 SLP252 CB DSNT S T01830111
 
KPWT - Bremerton Ntnl, Washington, USA
Distance from station: SW 24mi, 39km
Updated: Jun/15/2021 5:56pm
Clear
Clear
 Wind from SSW
Wind: SSW 21 mph , 33 km/h, Gust: 28 mph , 44 km/h
Temperature: 64°F , 18°C
Dew Point: 50°F , 10°C
Humidity: 60%
Barometer: 30.25 inHg , 1024.4 hPa
Clouds: Clear
Visibility: 10 miles , 16 km
2021/06/16 00:56 KPWT 160056Z AUTO 21018G24KT 10SM CLR 18/10 A3025 RMK AO2 SLP246 T01830100
KTIW - Tacoma, Washington, USA
Distance from station: SSW 32mi, 52km
Updated: Jun/15/2021 5:53pm
Mostly cloudy
Mostly cloudy
 Wind from S
Wind: S 6 mph , 9 km/h
Temperature: 61°F , 16°C
Dew Point: 54°F , 12°C
Humidity: 77%
Barometer: 30.27 inHg , 1025.1 hPa
Clouds: Mostly cloudy
Visibility: 10 miles , 16 km
Cloud details: Partly cloudy 1900 ft
Partly cloudy 3200 ft
Mostly cloudy 4300 ft
2021/06/16 00:53 KTIW 160053Z 18005KT 10SM SCT019 SCT032 BKN043 16/12 A3027 RMK AO2 SLP249 T01610122
 
KAWO - Arlington Muni, Washington, USA
Distance from station: N 33mi, 54km
Updated: Jun/15/2021 5:56pm
Overcast
Overcast
 Wind from SW
Wind: SW 9 mph , 15 km/h
Temperature: 64°F , 18°C
Dew Point: 52°F , 11°C
Humidity: 64%
Barometer: 30.24 inHg , 1024 hPa
Clouds: Overcast
Visibility: 10 miles , 16 km
Cloud details: Overcast 7000 ft
2021/06/16 00:56 KAWO 160056Z AUTO 22008KT 10SM OVC070 18/11 A3024 RMK AO2 SLP244 T01780111
KTCM - Tacoma/Mc Chord, Washington, USA
Distance from station: S 41mi, 65km
Updated: Jun/15/2021 5:58pm
Partly cloudy
Partly cloudy
 Wind from W
Wind: W 14 mph , 22 km/h
Temperature: 66°F , 19°C
Dew Point: 54°F , 12°C
Humidity: 64%
Barometer: 30.27 inHg , 1025.1 hPa
Clouds: Partly cloudy
Visibility: 10 miles , 16 km
Cloud details: Few Clouds 2900 ft
Partly cloudy 4000 ft
Partly cloudy 5000 ft
2021/06/16 00:58 KTCM 160058Z AUTO 27012KT 10SM FEW029 SCT040 SCT050 19/12 A3027 RMK AO2 SLP254 T01900120 $
 
KPLU - Puyallup/Thun, Washington, USA
Distance from station: S 41mi, 66km
Updated: Jun/15/2021 6:15pm
Light drizzle, Overcast
Light drizzle, Overcast
 Wind from calm
Wind: Calm
Temperature: 57°F , 14°C
Dew Point: 57°F , 14°C
Humidity: 100%
Barometer: 30.30 inHg , 1026.1 hPa
Summary: Light Drizzle
Clouds: Overcast
Visibility: 2 1/2 miles , 4 km
Cloud details: Overcast 2800 ft
2021/06/16 01:15 KPLU 160115Z AUTO 00000KT 2 1/2SM -DZ OVC028 14/14 A3030 RMK AO2
KGRF - Fort Lewis/Gray, Washington, USA
Distance from station: SSW 45mi, 72km
Updated: Jun/15/2021 4:58pm
NOT Current
Few Clouds
Few Clouds
 Wind from SW
Wind: SW 5 mph , 7 km/h
Clouds: Few Clouds
Visibility: 10 miles , 16 km
Cloud details: Few Clouds 500 ft
Few Clouds 4000 ft
2021/06/15 23:58 KGRF 152358Z 22004KT 10SM FEW005 FEW040 SCT80 18/13 A3025 RMK AO2A CB 15S MOV E RAE01 SLP248 P0000 60021 T01760131 10189 20144 51022 $
 
KNUW - Whidbey Is. Nas, Washington, USA
Distance from station: NNW 48mi, 77km
Updated: Jun/15/2021 4:56pm
NOT Current
Mostly cloudy
Mostly cloudy
 Wind from W
Wind: W 9 mph , 15 km/h
Temperature: 63°F , 17°C
Dew Point: 52°F , 11°C
Humidity: 68%
Barometer: 30.25 inHg , 1024.4 hPa
Clouds: Mostly cloudy
Visibility: 10 miles , 16 km
Cloud details: Partly cloudy 3500 ft
Partly cloudy 5000 ft
Mostly cloudy 11000 ft
Mostly cloudy 22000 ft
2021/06/15 23:56 KNUW 152356Z 26008KT 10SM SCT035 SCT050 BKN110 BKN220 17/11 A3025 RMK SLP243 CB DSNT NE T01720106 10194 20150 53016
KSHN - Shelton, Washington, USA
Distance from station: SW 50mi, 80km
Updated: Jun/15/2021 5:53pm
Overcast
Overcast
 Wind from WSW
Wind: WSW 16 mph , 26 km/h
Temperature: 61°F , 16°C
Dew Point: 52°F , 11°C
Humidity: 72%
Barometer: 30.25 inHg , 1024.4 hPa
Clouds: Overcast
Visibility: 10 miles , 16 km
Cloud details: Overcast 6000 ft
2021/06/16 00:53 KSHN 160053Z AUTO 24014KT 10SM OVC060 16/11 A3025 RMK AO2 SLP246 T01610106